sensor_id;sensor_type;location;lat;lon;timestamp;pressure;altitude;pressure_sealevel;temperature;humidity
17505;BME280;8870;50.950;11.762;2023-04-01T00:04:55;96578.09;;;8.97;100.00
17505;BME280;8870;50.950;11.762;2023-04-01T00:10:23;96577.66;;;8.93;100.00
17505;BME280;8870;50.950;11.762;2023-04-01T00:15:54;96574.78;;;8.94;100.00
17505;BME280;8870;50.950;11.762;2023-04-01T00:21:27;96566.94;;;9.00;100.00
17505;BME280;8870;50.950;11.762;2023-04-01T00:27:01;96558.06;;;8.99;100.00
17505;BME280;8870;50.950;11.762;2023-04-01T00:32:19;96563.47;;;9.06;100.00
17505;BME280;8870;50.950;11.762;2023-04-01T00:37:50;96565.16;;;9.07;100.00
17505;BME280;8870;50.950;11.762;2023-04-01T00:43:16;96555.69;;;9.11;100.00
17505;BME280;8870;50.950;11.762;2023-04-01T00:48:48;96556.06;;;9.08;100.00
17505;BME280;8870;50.950;11.762;2023-04-01T00:54:07;96569.72;;;9.13;100.00
17505;BME280;8870;50.950;11.762;2023-04-01T00:59:43;96555.69;;;9.11;100.00
17505;BME280;8870;50.950;11.762;2023-04-01T01:05:03;96555.25;;;9.14;100.00
17505;BME280;8870;50.950;11.762;2023-04-01T01:10:37;96558.97;;;9.13;100.00
17505;BME280;8870;50.950;11.762;2023-04-01T01:16:01;96553.00;;;9.11;100.00
17505;BME280;8870;50.950;11.762;2023-04-01T01:22:04;96543.88;;;9.05;100.00
17505;BME280;8870;50.950;11.762;2023-04-01T01:27:29;96544.88;;;9.04;100.00
17505;BME280;8870;50.950;11.762;2023-04-01T01:33:21;96547.13;;;9.01;100.00
17505;BME280;8870;50.950;11.762;2023-04-01T01:38:48;96538.69;;;9.04;100.00
17505;BME280;8870;50.950;11.762;2023-04-01T01:44:23;96534.97;;;9.05;100.00
17505;BME280;8870;50.950;11.762;2023-04-01T01:49:45;96542.63;;;9.08;100.00
17505;BME280;8870;50.950;11.762;2023-04-01T01:55:29;96546.94;;;9.02;100.00
17505;BME280;8870;50.950;11.762;2023-04-01T02:00:50;96545.31;;;9.08;100.00
17505;BME280;8870;50.950;11.762;2023-04-01T02:06:29;96548.19;;;9.06;100.00
17505;BME280;8870;50.950;11.762;2023-04-01T02:11:53;96551.94;;;9.05;100.00
17505;BME280;8870;50.950;11.762;2023-04-01T02:17:29;96545.09;;;9.09;100.00
17505;BME280;8870;50.950;11.762;2023-04-01T02:22:50;96546.13;;;9.08;100.00
17505;BME280;8870;50.950;11.762;2023-04-01T02:28:25;96548.78;;;9.02;100.00
17505;BME280;8870;50.950;11.762;2023-04-01T02:33:45;96548.59;;;9.03;100.00
17505;BME280;8870;50.950;11.762;2023-04-01T02:39:18;96548.56;;;8.97;100.00
17505;BME280;8870;50.950;11.762;2023-04-01T02:44:39;96549.75;;;8.94;100.00
17505;BME280;8870;50.950;11.762;2023-04-01T02:50:10;96555.13;;;8.87;100.00
17505;BME280;8870;50.950;11.762;2023-04-01T02:55:28;96556.75;;;8.88;100.00
17505;BME280;8870;50.950;11.762;2023-04-01T03:01:02;96552.03;;;8.90;100.00
17505;BME280;8870;50.950;11.762;2023-04-01T03:06:20;96555.34;;;8.92;100.00
17505;BME280;8870;50.950;11.762;2023-04-01T03:11:52;96557.56;;;8.82;100.00
17505;BME280;8870;50.950;11.762;2023-04-01T03:17:23;96549.28;;;8.84;100.00
17505;BME280;8870;50.950;11.762;2023-04-01T03:22:54;96557.72;;;8.74;100.00
17505;BME280;8870;50.950;11.762;2023-04-01T03:28:13;96559.97;;;8.77;100.00
17505;BME280;8870;50.950;11.762;2023-04-01T03:33:47;96558.09;;;8.71;100.00
17505;BME280;8870;50.950;11.762;2023-04-01T03:39:05;96567.81;;;8.72;100.00
17505;BME280;8870;50.950;11.762;2023-04-01T03:44:40;96556.03;;;8.73;100.00
17505;BME280;8870;50.950;11.762;2023-04-01T03:50:01;96557.72;;;8.74;100.00
17505;BME280;8870;50.950;11.762;2023-04-01T03:55:32;96560.03;;;8.84;100.00
17505;BME280;8870;50.950;11.762;2023-04-01T04:00:51;96558.38;;;8.83;100.00
17505;BME280;8870;50.950;11.762;2023-04-01T04:06:25;96562.91;;;8.82;100.00
17505;BME280;8870;50.950;11.762;2023-04-01T04:11:50;96563.94;;;8.81;100.00
17505;BME280;8870;50.950;11.762;2023-04-01T04:17:21;96586.06;;;8.83;100.00
17505;BME280;8870;50.950;11.762;2023-04-01T04:22:42;96570.81;;;8.90;100.00
17505;BME280;8870;50.950;11.762;2023-04-01T04:28:13;96579.91;;;8.89;100.00
17505;BME280;8870;50.950;11.762;2023-04-01T04:33:34;96581.16;;;8.93;100.00
17505;BME280;8870;50.950;11.762;2023-04-01T04:39:08;96582.56;;;8.89;100.00
17505;BME280;8870;50.950;11.762;2023-04-01T04:44:27;96587.72;;;8.84;100.00
17505;BME280;8870;50.950;11.762;2023-04-01T04:49:58;96598.09;;;8.87;100.00
17505;BME280;8870;50.950;11.762;2023-04-01T04:55:20;96589.38;;;8.85;100.00
17505;BME280;8870;50.950;11.762;2023-04-01T05:01:21;96589.63;;;8.90;100.00
17505;BME280;8870;50.950;11.762;2023-04-01T05:06:39;96592.56;;;8.96;100.00
17505;BME280;8870;50.950;11.762;2023-04-01T05:12:15;96603.94;;;8.98;100.00
17505;BME280;8870;50.950;11.762;2023-04-01T05:17:48;96597.53;;;8.99;100.00
17505;BME280;8870;50.950;11.762;2023-04-01T05:23:06;96607.88;;;9.02;100.00
17505;BME280;8870;50.950;11.762;2023-04-01T05:28:40;96612.00;;;8.98;100.00
17505;BME280;8870;50.950;11.762;2023-04-01T05:33:59;96613.06;;;9.03;100.00
17505;BME280;8870;50.950;11.762;2023-04-01T05:39:30;96616.78;;;9.02;100.00
17505;BME280;8870;50.950;11.762;2023-04-01T05:44:51;96616.38;;;9.05;100.00
17505;BME280;8870;50.950;11.762;2023-04-01T05:50:41;96623.81;;;9.03;100.00
17505;BME280;8870;50.950;11.762;2023-04-01T05:56:02;96626.72;;;9.08;100.00
17505;BME280;8870;50.950;11.762;2023-04-01T06:01:37;96623.81;;;9.03;100.00
17505;BME280;8870;50.950;11.762;2023-04-01T06:06:56;96627.34;;;9.10;100.00
17505;BME280;8870;50.950;11.762;2023-04-01T06:12:43;96627.31;;;9.04;100.00
17505;BME280;8870;50.950;11.762;2023-04-01T06:18:29;96630.03;;;9.10;100.00
17505;BME280;8870;50.950;11.762;2023-04-01T06:24:19;96631.50;;;9.13;100.00
17505;BME280;8870;50.950;11.762;2023-04-01T06:29:58;96640.59;;;9.12;100.00
17505;BME280;8870;50.950;11.762;2023-04-01T06:41:53;96634.59;;;9.10;100.00
17505;BME280;8870;50.950;11.762;2023-04-01T06:47:38;96641.63;;;9.11;100.00
17505;BME280;8870;50.950;11.762;2023-04-01T06:53:23;96649.50;;;9.13;100.00
17505;BME280;8870;50.950;11.762;2023-04-01T06:59:32;96649.22;;;9.07;100.00
17505;BME280;8870;50.950;11.762;2023-04-01T07:04:53;96655.25;;;9.09;100.00
17505;BME280;8870;50.950;11.762;2023-04-01T07:10:34;96658.50;;;9.05;100.00
17505;BME280;8870;50.950;11.762;2023-04-01T07:16:51;96654.81;;;9.06;100.00
17505;BME280;8870;50.950;11.762;2023-04-01T07:22:21;96654.00;;;9.12;100.00
17505;BME280;8870;50.950;11.762;2023-04-01T07:28:13;96661.94;;;9.20;100.00
17505;BME280;8870;50.950;11.762;2023-04-01T07:33:45;96662.16;;;9.25;100.00
17505;BME280;8870;50.950;11.762;2023-04-01T07:39:30;96660.41;;;9.39;100.00
17505;BME280;8870;50.950;11.762;2023-04-01T07:45:17;96661.75;;;9.57;100.00
17505;BME280;8870;50.950;11.762;2023-04-01T07:51:00;96656.47;;;9.77;100.00
17505;BME280;8870;50.950;11.762;2023-04-01T07:56:22;96655.97;;;10.02;100.00
17505;BME280;8870;50.950;11.762;2023-04-01T08:02:08;96667.81;;;10.21;100.00
17505;BME280;8870;50.950;11.762;2023-04-01T08:07:40;96656.66;;;10.31;100.00
17505;BME280;8870;50.950;11.762;2023-04-01T08:13:40;96662.72;;;10.46;100.00
17505;BME280;8870;50.950;11.762;2023-04-01T08:19:19;96661.72;;;10.61;100.00
17505;BME280;8870;50.950;11.762;2023-04-01T08:24:44;96676.66;;;10.77;100.00
17505;BME280;8870;50.950;11.762;2023-04-01T08:30:18;96658.22;;;10.81;100.00
17505;BME280;8870;50.950;11.762;2023-04-01T08:35:39;96668.38;;;11.05;100.00
17505;BME280;8870;50.950;11.762;2023-04-01T08:47:46;96670.44;;;10.90;100.00
17505;BME280;8870;50.950;11.762;2023-04-01T08:53:30;96674.59;;;10.79;100.00
17505;BME280;8870;50.950;11.762;2023-04-01T08:59:02;96671.69;;;10.81;100.00
17505;BME280;8870;50.950;11.762;2023-04-01T09:05:28;96683.91;;;10.70;100.00
17505;BME280;8870;50.950;11.762;2023-04-01T09:11:06;96691.34;;;10.61;100.00
17505;BME280;8870;50.950;11.762;2023-04-01T09:17:01;96688.00;;;10.45;100.00
17505;BME280;8870;50.950;11.762;2023-04-01T09:22:40;96695.06;;;10.60;100.00
17505;BME280;8870;50.950;11.762;2023-04-01T09:28:16;96706.03;;;10.65;100.00
17505;BME280;8870;50.950;11.762;2023-04-01T09:33:52;96707.94;;;10.71;100.00
17505;BME280;8870;50.950;11.762;2023-04-01T09:39:46;96708.59;;;10.87;100.00
17505;BME280;8870;50.950;11.762;2023-04-01T09:45:41;96711.69;;;10.77;100.00
17505;BME280;8870;50.950;11.762;2023-04-01T09:51:09;96713.13;;;10.79;100.00
17505;BME280;8870;50.950;11.762;2023-04-01T10:09:12;96714.56;;;10.89;100.00
17505;BME280;8870;50.950;11.762;2023-04-01T10:21:11;96724.34;;;11.03;100.00
17505;BME280;8870;50.950;11.762;2023-04-01T10:26:46;96715.03;;;10.99;100.00
17505;BME280;8870;50.950;11.762;2023-04-01T10:51:15;96729.22;;;10.53;100.00
17505;BME280;8870;50.950;11.762;2023-04-01T10:56:55;96724.66;;;10.46;100.00
17505;BME280;8870;50.950;11.762;2023-04-01T11:02:59;96717.59;;;10.39;100.00
17505;BME280;8870;50.950;11.762;2023-04-01T11:21:45;96737.47;;;10.44;100.00
17505;BME280;8870;50.950;11.762;2023-04-01T11:27:43;96736.72;;;10.64;100.00
17505;BME280;8870;50.950;11.762;2023-04-01T11:33:20;96729.25;;;10.73;100.00
17505;BME280;8870;50.950;11.762;2023-04-01T11:39:04;96731.59;;;10.96;100.00
17505;BME280;8870;50.950;11.762;2023-04-01T11:44:51;96726.44;;;11.28;100.00
17505;BME280;8870;50.950;11.762;2023-04-01T11:50:22;96732.63;;;11.55;100.00
17505;BME280;8870;50.950;11.762;2023-04-01T11:56:02;96734.91;;;11.52;100.00
17505;BME280;8870;50.950;11.762;2023-04-01T12:01:33;96732.22;;;11.59;100.00
17505;BME280;8870;50.950;11.762;2023-04-01T12:07:14;96735.53;;;11.61;100.00
17505;BME280;8870;50.950;11.762;2023-04-01T12:12:50;96733.03;;;11.59;100.00
17505;BME280;8870;50.950;11.762;2023-04-01T12:18:29;96736.34;;;11.61;100.00
17505;BME280;8870;50.950;11.762;2023-04-01T12:24:13;96736.31;;;11.88;100.00
17505;BME280;8870;50.950;11.762;2023-04-01T12:30:02;96733.00;;;11.99;100.00
17505;BME280;8870;50.950;11.762;2023-04-01T12:35:27;96739.63;;;12.10;100.00
17505;BME280;8870;50.950;11.762;2023-04-01T12:41:10;96735.03;;;12.11;100.00
17505;BME280;8870;50.950;11.762;2023-04-01T12:46:52;96740.00;;;12.21;100.00
17505;BME280;8870;50.950;11.762;2023-04-01T12:52:37;96742.66;;;12.27;100.00
17505;BME280;8870;50.950;11.762;2023-04-01T13:10:15;96746.16;;;12.35;100.00
17505;BME280;8870;50.950;11.762;2023-04-01T13:15:50;96750.16;;;12.25;100.00
17505;BME280;8870;50.950;11.762;2023-04-01T13:21:33;96744.53;;;12.20;100.00
17505;BME280;8870;50.950;11.762;2023-04-01T13:27:01;96751.34;;;12.36;100.00
17505;BME280;8870;50.950;11.762;2023-04-01T13:32:41;96750.28;;;12.44;100.00
17505;BME280;8870;50.950;11.762;2023-04-01T13:38:15;96745.88;;;12.49;100.00
17505;BME280;8870;50.950;11.762;2023-04-01T13:43:57;96744.75;;;12.71;100.00
17505;BME280;8870;50.950;11.762;2023-04-01T13:49:30;96742.69;;;12.66;100.00
17505;BME280;8870;50.950;11.762;2023-04-01T13:55:31;96745.72;;;12.44;100.00
17505;BME280;8870;50.950;11.762;2023-04-01T14:01:12;96755.38;;;12.00;100.00
17505;BME280;8870;50.950;11.762;2023-04-01T14:06:38;96758.13;;;11.80;100.00
17505;BME280;8870;50.950;11.762;2023-04-01T14:12:27;96764.56;;;11.65;100.00
17505;BME280;8870;50.950;11.762;2023-04-01T14:17:57;96767.44;;;11.77;100.00
17505;BME280;8870;50.950;11.762;2023-04-01T14:23:49;96784.91;;;11.68;100.00
17505;BME280;8870;50.950;11.762;2023-04-01T14:29:18;96776.41;;;11.64;100.00
17505;BME280;8870;50.950;11.762;2023-04-01T14:35:06;96781.38;;;11.61;100.00
17505;BME280;8870;50.950;11.762;2023-04-01T14:40:45;96786.38;;;11.57;100.00
17505;BME280;8870;50.950;11.762;2023-04-01T14:46:58;96790.50;;;11.53;100.00
17505;BME280;8870;50.950;11.762;2023-04-01T14:52:27;96796.53;;;11.55;100.00
17505;BME280;8870;50.950;11.762;2023-04-01T14:58:08;96797.78;;;11.46;100.00
17505;BME280;8870;50.950;11.762;2023-04-01T15:03:30;96813.13;;;11.52;100.00
17505;BME280;8870;50.950;11.762;2023-04-01T15:09:07;96812.28;;;11.38;100.00
17505;BME280;8870;50.950;11.762;2023-04-01T15:14:44;96824.75;;;11.46;100.00
17505;BME280;8870;50.950;11.762;2023-04-01T15:20:31;96826.41;;;11.40;100.00
17505;BME280;8870;50.950;11.762;2023-04-01T15:26:08;96830.13;;;11.32;100.00
17505;BME280;8870;50.950;11.762;2023-04-01T15:31:47;96828.84;;;11.28;100.00
17505;BME280;8870;50.950;11.762;2023-04-01T15:37:12;96830.53;;;11.29;100.00
17505;BME280;8870;50.950;11.762;2023-04-01T15:42:59;96847.13;;;11.33;100.00
17505;BME280;8870;50.950;11.762;2023-04-01T15:48:39;96849.63;;;11.34;100.00
17505;BME280;8870;50.950;11.762;2023-04-01T15:54:37;96858.31;;;11.36;100.00
17505;BME280;8870;50.950;11.762;2023-04-01T16:00:26;96866.41;;;11.43;100.00
17505;BME280;8870;50.950;11.762;2023-04-01T16:06:11;96868.75;;;11.73;100.00
17505;BME280;8870;50.950;11.762;2023-04-01T16:11:40;96868.94;;;11.58;100.00
17505;BME280;8870;50.950;11.762;2023-04-01T16:17:34;96868.06;;;11.37;100.00
17505;BME280;8870;50.950;11.762;2023-04-01T16:22:59;96873.25;;;11.32;100.00
17505;BME280;8870;50.950;11.762;2023-04-01T16:28:38;96879.88;;;11.36;100.00
17505;BME280;8870;50.950;11.762;2023-04-01T16:34:08;96893.56;;;11.35;100.00
17505;BME280;8870;50.950;11.762;2023-04-01T16:39:46;96902.03;;;11.25;100.00
17505;BME280;8870;50.950;11.762;2023-04-01T16:45:19;96912.44;;;11.28;100.00
17505;BME280;8870;50.950;11.762;2023-04-01T16:50:59;96914.72;;;11.31;100.00
17505;BME280;8870;50.950;11.762;2023-04-01T16:56:21;96917.41;;;11.31;100.00
17505;BME280;8870;50.950;11.762;2023-04-01T17:01:55;96921.75;;;11.19;100.00
17505;BME280;8870;50.950;11.762;2023-04-01T17:07:31;96937.66;;;11.14;100.00
17505;BME280;8870;50.950;11.762;2023-04-01T20:03:02;97211.22;;;9.03;100.00
17505;BME280;8870;50.950;11.762;2023-04-01T20:14:23;97225.50;;;8.80;100.00
17505;BME280;8870;50.950;11.762;2023-04-01T20:19:53;97247.34;;;8.77;100.00
17505;BME280;8870;50.950;11.762;2023-04-01T20:25:39;97243.00;;;8.76;100.00
17505;BME280;8870;50.950;11.762;2023-04-01T20:31:23;97255.13;;;8.72;100.00
17505;BME280;8870;50.950;11.762;2023-04-01T20:37:11;97256.78;;;8.73;100.00
17505;BME280;8870;50.950;11.762;2023-04-01T20:42:53;97269.91;;;8.68;100.00
17505;BME280;8870;50.950;11.762;2023-04-01T20:48:54;97280.28;;;8.71;100.00
17505;BME280;8870;50.950;11.762;2023-04-01T20:54:22;97291.69;;;8.73;100.00
17505;BME280;8870;50.950;11.762;2023-04-01T21:00:03;97304.38;;;8.87;100.00
17505;BME280;8870;50.950;11.762;2023-04-01T21:05:54;97316.47;;;8.83;100.00
17505;BME280;8870;50.950;11.762;2023-04-01T21:11:24;97312.41;;;8.87;100.00
17505;BME280;8870;50.950;11.762;2023-04-01T21:17:05;97316.94;;;8.87;100.00
17505;BME280;8870;50.950;11.762;2023-04-01T21:22:36;97322.13;;;8.88;100.00
17505;BME280;8870;50.950;11.762;2023-04-01T21:28:28;97326.47;;;8.89;100.00
17505;BME280;8870;50.950;11.762;2023-04-01T21:34:06;97336.88;;;8.92;100.00
17505;BME280;8870;50.950;11.762;2023-04-01T21:39:59;97342.56;;;8.98;100.00
17505;BME280;8870;50.950;11.762;2023-04-01T21:45:38;97350.97;;;8.94;100.00
17505;BME280;8870;50.950;11.762;2023-04-01T21:57:25;97363.94;;;8.91;100.00
17505;BME280;8870;50.950;11.762;2023-04-01T22:03:26;97373.34;;;8.87;100.00
17505;BME280;8870;50.950;11.762;2023-04-01T22:09:11;97375.38;;;8.85;100.00
17505;BME280;8870;50.950;11.762;2023-04-01T22:14:34;97378.53;;;8.88;100.00
17505;BME280;8870;50.950;11.762;2023-04-01T22:20:16;97391.97;;;8.88;100.00
17505;BME280;8870;50.950;11.762;2023-04-01T22:25:51;97399.38;;;8.86;100.00
17505;BME280;8870;50.950;11.762;2023-04-01T22:31:18;97413.81;;;8.85;100.00
17505;BME280;8870;50.950;11.762;2023-04-01T22:36:58;97422.78;;;8.69;100.00
17505;BME280;8870;50.950;11.762;2023-04-01T22:42:30;97416.94;;;8.57;100.00
17505;BME280;8870;50.950;11.762;2023-04-01T22:48:09;97421.81;;;8.45;100.00
17505;BME280;8870;50.950;11.762;2023-04-01T22:53:42;97443.00;;;8.32;100.00
17505;BME280;8870;50.950;11.762;2023-04-01T22:59:19;97442.03;;;8.08;100.00
17505;BME280;8870;50.950;11.762;2023-04-01T23:04:42;97453.59;;;8.09;100.00
17505;BME280;8870;50.950;11.762;2023-04-01T23:10:20;97461.97;;;7.97;100.00
17505;BME280;8870;50.950;11.762;2023-04-01T23:15:40;97464.31;;;7.84;100.00
17505;BME280;8870;50.950;11.762;2023-04-01T23:21:13;97473.06;;;7.69;100.00
17505;BME280;8870;50.950;11.762;2023-04-01T23:26:40;97494.16;;;7.64;100.00
17505;BME280;8870;50.950;11.762;2023-04-01T23:37:43;97507.53;;;7.56;100.00
17505;BME280;8870;50.950;11.762;2023-04-01T23:43:23;97520.56;;;7.34;100.00
17505;BME280;8870;50.950;11.762;2023-04-01T23:48:44;97523.00;;;7.19;100.00
17505;BME280;8870;50.950;11.762;2023-04-01T23:54:19;97530.81;;;7.04;100.00
17505;BME280;8870;50.950;11.762;2023-04-01T23:59:40;97547.19;;;7.01;100.00
